createdAt,value
2018-02-05T00:01:04.919Z,43.07
2018-02-05T00:03:33.168Z,43.60
2018-02-05T00:06:00.664Z,43.20
2018-02-05T00:08:29.014Z,37.57
2018-02-05T00:10:56.478Z,45.80
2018-02-05T00:13:23.971Z,44.83
2018-02-05T00:15:51.462Z,43.50
2018-02-05T00:18:18.915Z,44.43
2018-02-05T00:20:46.469Z,44.00
2018-02-05T00:23:13.938Z,47.07
2018-02-05T00:25:41.422Z,43.60
2018-02-05T00:28:09.419Z,43.50
2018-02-05T00:30:37.653Z,36.60
2018-02-05T00:33:05.148Z,44.53
2018-02-05T00:35:33.471Z,40.17
2018-02-05T00:38:01.068Z,42.63
2018-02-05T00:40:28.514Z,45.13
2018-02-05T00:42:56.008Z,40.60
2018-02-05T00:45:24.286Z,41.30
2018-02-05T00:47:52.556Z,48.27
2018-02-05T00:50:20.059Z,40.63
2018-02-05T00:52:47.572Z,46.70
2018-02-05T00:55:15.799Z,43.03
2018-02-05T00:57:43.285Z,44.43
2018-02-05T01:00:10.822Z,43.87
2018-02-05T01:02:38.314Z,41.03
2018-02-05T01:05:05.779Z,39.50
2018-02-05T01:07:33.250Z,43.53
2018-02-05T01:10:01.553Z,47.50
2018-02-05T01:12:29.055Z,43.90
2018-02-05T01:14:56.527Z,42.77
2018-02-05T01:17:23.994Z,46.20
2018-02-05T01:19:52.978Z,43.83
2018-02-05T01:22:20.467Z,44.60
2018-02-05T01:24:48.718Z,51.00
2018-02-05T01:27:16.171Z,41.70
2018-02-05T01:29:43.706Z,40.73
2018-02-05T01:32:11.216Z,43.07
2018-02-05T01:34:39.521Z,44.00
2018-02-05T01:37:06.922Z,40.03
2018-02-05T01:39:34.492Z,40.80
2018-02-05T01:42:01.973Z,49.63
2018-02-05T01:44:30.223Z,44.43
2018-02-05T01:46:57.686Z,43.00
2018-02-05T01:49:25.992Z,41.10
2018-02-05T01:51:54.238Z,42.30
2018-02-05T01:54:21.705Z,44.57
2018-02-05T01:56:49.226Z,39.53
2018-02-05T01:59:16.728Z,37.53
2018-02-05T02:01:44.271Z,40.50
2018-02-05T02:04:13.302Z,37.10
2018-02-05T02:06:41.545Z,41.20
2018-02-05T02:09:08.999Z,39.43
2018-02-05T02:11:36.586Z,36.17
2018-02-05T02:14:04.046Z,38.83
2018-02-05T02:16:32.356Z,38.80
2018-02-05T02:18:59.851Z,36.97
2018-02-05T02:21:27.382Z,27.47
2018-02-05T02:23:54.881Z,33.50
2018-02-05T02:26:23.158Z,40.50
2018-02-05T02:28:50.615Z,37.97
2018-02-05T02:31:18.145Z,38.37
2018-02-05T02:33:45.643Z,39.40
2018-02-05T02:36:13.157Z,39.27
2018-02-05T02:38:40.836Z,37.93
2018-02-05T02:41:08.375Z,39.20
2018-02-05T02:43:35.840Z,42.30
2018-02-05T02:46:03.428Z,38.93
2018-02-05T02:48:31.692Z,42.17
2018-02-05T02:50:59.263Z,39.63
2018-02-05T02:53:26.729Z,39.67
2018-02-05T02:55:55.135Z,44.30
2018-02-05T02:58:23.067Z,38.83
2018-02-05T03:00:51.571Z,41.50
2018-02-05T03:03:19.899Z,39.40
2018-02-05T03:05:47.410Z,44.40
2018-02-05T03:08:15.650Z,47.43
2018-02-05T03:10:43.138Z,38.30
2018-02-05T03:13:11.487Z,44.27
2018-02-05T03:15:38.974Z,43.57
2018-02-05T03:18:07.249Z,38.70
2018-02-05T03:20:34.759Z,46.77
2018-02-05T03:23:02.273Z,46.00
2018-02-05T03:25:29.754Z,37.90
2018-02-05T03:27:58.006Z,39.73
2018-02-05T03:30:26.271Z,46.17
2018-02-05T03:32:53.735Z,44.87
2018-02-05T03:35:21.190Z,42.97
2018-02-05T03:37:48.659Z,46.60
2018-02-05T03:40:16.877Z,46.40
2018-02-05T03:42:44.350Z,44.80
2018-02-05T03:45:11.823Z,38.73
2018-02-05T03:47:39.301Z,37.07
2018-02-05T03:50:06.771Z,45.27
2018-02-05T03:52:35.035Z,47.40
2018-02-05T03:55:02.497Z,42.67
2018-02-05T03:57:29.971Z,47.63
2018-02-05T03:59:58.213Z,43.27
2018-02-05T04:02:25.687Z,41.40
2018-02-05T04:04:53.144Z,42.17
2018-02-05T04:07:20.690Z,42.87
2018-02-05T04:09:48.175Z,38.23
2018-02-05T04:12:16.390Z,41.53
2018-02-05T04:14:43.847Z,37.83
2018-02-05T04:17:11.324Z,40.43
2018-02-05T04:19:38.786Z,35.80
2018-02-05T04:22:06.495Z,39.20
2018-02-05T04:24:34.755Z,43.40
2018-02-05T04:27:02.221Z,37.10
2018-02-05T04:29:29.666Z,36.80
2018-02-05T04:31:57.154Z,32.27
2018-02-05T04:34:25.380Z,31.57
2018-02-05T04:36:52.849Z,36.00
2018-02-05T04:39:20.436Z,36.23
2018-02-05T04:41:48.684Z,38.90
2018-02-05T04:44:16.130Z,37.80
2018-02-05T04:46:43.974Z,38.57
2018-02-05T04:49:11.470Z,38.00
2018-02-05T04:51:39.035Z,40.00
2018-02-05T04:54:06.503Z,36.30
2018-02-05T04:56:33.947Z,36.07
2018-02-05T04:59:01.443Z,30.70
2018-02-05T05:01:29.704Z,37.17
2018-02-05T05:03:57.155Z,37.30
2018-02-05T05:06:24.635Z,37.10
2018-02-05T05:08:52.887Z,35.40
2018-02-05T05:11:20.358Z,31.50
2018-02-05T05:13:48.633Z,38.70
2018-02-05T05:16:16.101Z,30.87
2018-02-05T05:18:44.360Z,34.33
2018-02-05T05:21:11.827Z,37.03
2018-02-05T05:23:40.066Z,31.07
2018-02-05T05:26:07.540Z,32.37
2018-02-05T05:28:34.997Z,36.30
2018-02-05T05:31:02.492Z,35.67
2018-02-05T05:33:30.750Z,35.40
2018-02-05T05:35:58.280Z,35.03
2018-02-05T05:38:25.767Z,35.97
2018-02-05T05:40:53.249Z,40.20
2018-02-05T05:43:21.486Z,33.63
2018-02-05T05:45:48.944Z,37.57
2018-02-05T05:48:16.487Z,38.27
2018-02-05T05:50:43.964Z,31.03
2018-02-05T05:53:11.448Z,42.20
2018-02-05T05:55:39.674Z,35.40
2018-02-05T05:58:07.151Z,36.30
2018-02-05T06:00:34.613Z,31.30
2018-02-05T06:03:02.085Z,33.83
2018-02-05T06:05:29.540Z,39.27
2018-02-05T06:07:57.020Z,34.40
2018-02-05T06:10:25.260Z,38.43
2018-02-05T06:12:52.731Z,36.47
2018-02-05T06:15:20.192Z,36.70
2018-02-05T06:17:47.643Z,39.93
2018-02-05T06:20:15.123Z,36.67
2018-02-05T06:22:43.362Z,39.87
2018-02-05T06:25:10.899Z,45.00
2018-02-05T06:27:38.382Z,35.40
2018-02-05T06:30:05.864Z,35.77
2018-02-05T06:32:33.330Z,35.50
2018-02-05T06:35:01.137Z,38.93
2018-02-05T06:37:28.630Z,35.87
2018-02-05T06:39:56.083Z,32.77
2018-02-05T06:42:23.870Z,39.47
2018-02-05T06:44:51.328Z,35.47
2018-02-05T06:47:18.935Z,35.40
2018-02-05T06:49:46.394Z,34.63
2018-02-05T06:52:20.475Z,32.57
2018-02-05T06:54:59.888Z,35.73
2018-02-05T06:57:27.375Z,31.80
2018-02-05T06:59:55.612Z,38.33
2018-02-05T07:02:23.095Z,34.17
2018-02-05T07:04:50.661Z,37.67
2018-02-05T07:07:18.145Z,29.90
2018-02-05T07:09:46.396Z,30.27
2018-02-05T07:12:14.639Z,35.30
2018-02-05T07:14:42.102Z,36.03
2018-02-05T07:17:09.580Z,33.20
2018-02-05T07:19:37.010Z,30.73
2018-02-05T07:22:04.508Z,29.67
2018-02-05T07:24:32.871Z,27.60
2018-02-05T07:27:00.311Z,29.50
2018-02-05T07:29:27.797Z,27.87
2018-02-05T07:31:55.308Z,26.87
2018-02-05T07:34:22.782Z,22.33
2018-02-05T07:36:50.252Z,24.80
2018-02-05T07:39:17.722Z,25.67
2018-02-05T07:41:45.202Z,27.27
2018-02-05T07:44:13.823Z,29.43
2018-02-05T07:46:41.308Z,27.90
2018-02-05T07:49:08.787Z,23.40
2018-02-05T07:51:36.271Z,26.67
2018-02-05T07:54:04.524Z,31.27
2018-02-05T07:56:32.002Z,24.47
2018-02-05T07:59:00.263Z,25.53
2018-02-05T08:01:28.523Z,30.10
2018-02-05T08:03:55.994Z,25.67
2018-02-05T08:06:23.516Z,25.13
2018-02-05T08:08:51.046Z,25.80
2018-02-05T08:11:19.349Z,24.90
2018-02-05T08:13:46.815Z,23.27
2018-02-05T08:16:14.319Z,23.40
2018-02-05T08:18:42.670Z,23.80
2018-02-05T08:21:10.251Z,26.03
2018-02-05T08:23:37.731Z,25.20
2018-02-05T08:26:05.981Z,22.90
2018-02-05T08:28:33.464Z,25.07
2018-02-05T08:31:01.683Z,22.60
2018-02-05T08:33:29.203Z,21.87
2018-02-05T08:35:56.646Z,21.60
2018-02-05T08:38:24.899Z,22.30
2018-02-05T08:40:52.370Z,20.80
2018-02-05T08:43:19.931Z,24.53
2018-02-05T08:45:47.402Z,21.67
2018-02-05T08:48:15.627Z,21.70
2018-02-05T08:50:43.116Z,20.13
2018-02-05T08:53:10.570Z,19.73
2018-02-05T08:55:38.039Z,26.13
2018-02-05T08:58:05.507Z,25.43
2018-02-05T09:00:33.828Z,23.57
2018-02-05T09:03:01.304Z,24.83
2018-02-05T09:05:28.798Z,20.00
2018-02-05T09:07:56.262Z,19.13
2018-02-05T09:10:24.506Z,20.10
2018-02-05T09:12:51.997Z,21.93
2018-02-05T09:15:20.275Z,19.57
2018-02-05T09:17:48.749Z,22.80
2018-02-05T09:20:16.235Z,20.60
2018-02-05T09:22:44.479Z,15.07
2018-02-05T09:25:11.938Z,18.33
2018-02-05T09:27:39.419Z,17.83
2018-02-05T09:30:07.645Z,20.47
2018-02-05T09:32:35.183Z,17.10
2018-02-05T09:35:02.643Z,15.97
2018-02-05T09:37:30.127Z,16.43
2018-02-05T09:39:57.584Z,17.93
2018-02-05T09:42:25.064Z,16.77
2018-02-05T09:44:53.335Z,16.47
2018-02-05T09:47:20.799Z,14.37
2018-02-05T09:49:48.307Z,17.10
2018-02-05T09:52:15.763Z,17.23
2018-02-05T09:54:43.228Z,18.90
2018-02-05T09:57:10.723Z,16.23
2018-02-05T09:59:38.187Z,16.93
2018-02-05T10:02:05.660Z,18.40
2018-02-05T10:04:33.156Z,16.63
2018-02-05T10:07:00.642Z,15.10
2018-02-05T10:09:28.126Z,14.53
2018-02-05T10:11:55.581Z,14.93
2018-02-05T10:14:23.051Z,15.27
2018-02-05T10:16:50.524Z,15.30
2018-02-05T10:19:18.774Z,17.67
2018-02-05T10:21:46.268Z,18.43
2018-02-05T10:24:14.493Z,16.90
2018-02-05T10:26:41.961Z,16.13
2018-02-05T10:29:09.450Z,13.77
2018-02-05T10:31:37.722Z,13.53
2018-02-05T10:34:06.011Z,15.23
2018-02-05T10:36:34.355Z,13.20
2018-02-05T10:39:01.783Z,18.13
2018-02-05T10:41:29.536Z,14.90
2018-02-05T10:43:57.303Z,15.27
2018-02-05T10:46:24.824Z,14.47
2018-02-05T10:48:53.124Z,12.90
2018-02-05T10:51:21.351Z,16.87
2018-02-05T10:53:48.847Z,18.93
2018-02-05T10:56:17.064Z,12.87
2018-02-05T10:58:44.765Z,15.53
2018-02-05T11:01:12.252Z,16.00
2018-02-05T11:03:40.458Z,12.60
2018-02-05T11:06:07.931Z,16.00
2018-02-05T11:08:35.511Z,15.47
2018-02-05T11:11:03.044Z,21.77
2018-02-05T11:13:30.781Z,20.07
2018-02-05T11:15:58.316Z,18.27
2018-02-05T11:18:26.647Z,15.07
2018-02-05T11:20:54.111Z,18.20
2018-02-05T11:23:21.607Z,20.10
2018-02-05T11:25:49.834Z,15.43
2018-02-05T11:28:17.317Z,12.87
2018-02-05T11:30:44.796Z,19.50
2018-02-05T11:33:13.027Z,14.87
2018-02-05T11:35:40.555Z,18.57
2018-02-05T11:38:08.053Z,17.80
2018-02-05T11:40:35.549Z,15.13
2018-02-05T11:43:03.067Z,18.60
2018-02-05T11:45:30.561Z,21.93
2018-02-05T11:47:58.021Z,18.20
2018-02-05T11:50:25.535Z,19.13
2018-02-05T11:52:53.032Z,17.20
2018-02-05T11:55:20.521Z,18.83
2018-02-05T11:57:48.767Z,20.60
2018-02-05T12:00:16.261Z,20.70
2018-02-05T12:02:44.684Z,20.07
2018-02-05T12:05:12.099Z,20.03
2018-02-05T12:07:39.633Z,19.97
2018-02-05T12:10:07.111Z,22.03
2018-02-05T12:12:35.359Z,23.67
2018-02-05T12:15:02.851Z,18.47
2018-02-05T12:17:30.481Z,14.10
2018-02-05T12:19:57.931Z,15.80
2018-02-05T12:22:31.243Z,22.47
2018-02-05T12:24:59.493Z,20.00
2018-02-05T12:27:26.976Z,18.67
2018-02-05T12:29:56.087Z,17.47
2018-02-05T12:32:24.375Z,20.13
2018-02-05T12:34:52.638Z,17.50
2018-02-05T12:37:21.052Z,19.57
2018-02-05T12:39:48.647Z,20.63
2018-02-05T12:42:16.147Z,17.43
2018-02-05T12:44:44.446Z,14.70
2018-02-05T12:47:11.930Z,17.23
2018-02-05T12:49:39.407Z,16.80
2018-02-05T12:52:06.884Z,20.30
2018-02-05T12:54:34.335Z,19.17
2018-02-05T12:57:01.803Z,16.00
2018-02-05T12:59:30.050Z,19.73
2018-02-05T13:05:18.544Z,16.30
2018-02-05T13:07:46.023Z,19.60
2018-02-05T13:10:14.943Z,18.63
2018-02-05T13:12:42.425Z,19.03
2018-02-05T13:15:09.929Z,19.37
2018-02-05T13:17:38.196Z,15.03
2018-02-05T13:20:06.209Z,17.83
2018-02-05T13:22:33.723Z,17.43
2018-02-05T13:25:01.279Z,16.87
2018-02-05T13:27:28.752Z,19.47
2018-02-05T13:29:58.913Z,17.50
2018-02-05T13:32:26.372Z,15.30
2018-02-05T13:34:53.889Z,16.63
2018-02-05T13:37:22.133Z,17.20
2018-02-05T13:39:49.876Z,16.50
2018-02-05T13:42:17.769Z,18.00
2018-02-05T13:44:45.439Z,18.10
2018-02-05T13:47:12.964Z,14.63
2018-02-05T13:49:40.441Z,26.03
2018-02-05T13:52:07.896Z,17.37
2018-02-05T13:54:35.761Z,20.90
2018-02-05T13:57:03.731Z,19.20
2018-02-05T13:59:31.219Z,19.40
2018-02-05T14:02:02.578Z,17.70
2018-02-05T14:04:30.175Z,17.90
2018-02-05T14:06:57.884Z,16.27
2018-02-05T14:09:25.380Z,20.37
2018-02-05T14:11:53.616Z,18.10
2018-02-05T14:14:21.091Z,18.57
2018-02-05T14:16:49.022Z,17.83
2018-02-05T14:19:16.697Z,17.20
2018-02-05T14:21:44.401Z,13.30
2018-02-05T14:24:12.635Z,20.00
2018-02-05T14:26:40.118Z,22.73
2018-02-05T14:29:07.635Z,18.60
2018-02-05T14:31:35.395Z,19.50
2018-02-05T14:34:02.872Z,22.70
2018-02-05T14:36:30.359Z,21.90
2018-02-05T14:38:58.177Z,20.27
2018-02-05T14:41:25.915Z,27.13
2018-02-05T14:43:54.219Z,20.80
2018-02-05T14:46:21.688Z,23.93
2018-02-05T14:48:49.345Z,21.50
2018-02-05T14:51:17.216Z,21.83
2018-02-05T14:53:44.667Z,21.60
2018-02-05T14:56:12.127Z,22.27
2018-02-05T14:58:39.636Z,21.83
2018-02-05T15:01:07.878Z,23.43
2018-02-05T15:03:35.377Z,21.13
2018-02-05T15:10:39.423Z,21.30
2018-02-05T15:13:07.785Z,25.27
2018-02-05T15:15:35.262Z,24.43
2018-02-05T15:18:03.520Z,28.00
2018-02-05T15:20:31.382Z,25.10
2018-02-05T15:22:59.079Z,21.30
2018-02-05T15:25:28.511Z,19.80
2018-02-05T15:27:56.081Z,22.93
2018-02-05T15:30:23.583Z,25.83
2018-02-05T15:32:51.085Z,23.53
2018-02-05T15:35:18.586Z,24.37
2018-02-05T15:37:46.060Z,26.00
2018-02-05T15:40:15.060Z,19.20
2018-02-05T15:42:43.342Z,24.60
2018-02-05T15:45:11.599Z,24.50
2018-02-05T15:47:39.108Z,22.20
2018-02-05T15:50:06.543Z,24.13
2018-02-05T15:52:34.801Z,23.17
2018-02-05T15:55:02.307Z,20.03
2018-02-05T15:57:29.779Z,22.57
2018-02-05T15:59:57.243Z,23.33
2018-02-05T16:02:24.716Z,20.10
2018-02-05T16:04:52.271Z,20.07
2018-02-05T16:07:19.857Z,38.07
2018-02-05T16:09:47.316Z,22.40
2018-02-05T16:12:16.637Z,20.63
2018-02-05T16:14:44.391Z,21.37
2018-02-05T16:17:13.028Z,18.40
2018-02-05T16:19:40.521Z,19.57
2018-02-05T16:22:07.987Z,24.77
2018-02-05T16:24:35.924Z,19.73
2018-02-05T16:27:03.638Z,22.10
2018-02-05T16:29:32.401Z,23.17
2018-02-05T16:31:59.858Z,20.07
2018-02-05T16:34:27.503Z,19.10
2018-02-05T16:36:56.754Z,23.50
2018-02-05T16:39:24.472Z,25.30
2018-02-05T16:41:52.298Z,20.20
2018-02-05T16:44:20.537Z,22.80
2018-02-05T16:46:50.319Z,21.90
2018-02-05T16:49:18.922Z,24.97
2018-02-05T16:51:46.369Z,20.53
2018-02-05T16:54:13.915Z,24.57
2018-02-05T16:56:41.404Z,22.40
2018-02-05T16:59:08.847Z,23.80
2018-02-05T17:01:36.323Z,24.10
2018-02-05T17:04:04.183Z,25.97
2018-02-05T17:06:31.631Z,27.10
2018-02-05T17:08:59.086Z,26.00
2018-02-05T17:11:26.586Z,21.03
2018-02-05T17:13:54.823Z,23.73
2018-02-05T17:16:22.257Z,26.90
2018-02-05T17:18:49.843Z,21.60
2018-02-05T17:21:17.295Z,18.97
2018-02-05T17:23:44.754Z,24.97
2018-02-05T17:26:12.263Z,24.63
2018-02-05T17:28:40.482Z,24.63
2018-02-05T17:31:07.957Z,24.17
2018-02-05T17:33:35.439Z,25.93
2018-02-05T17:36:03.668Z,23.37
2018-02-05T17:38:31.111Z,25.47
2018-02-05T17:40:58.615Z,28.47
2018-02-05T17:43:26.086Z,28.70
2018-02-05T17:45:54.323Z,22.73
2018-02-05T17:48:21.885Z,25.40
2018-02-05T17:50:49.363Z,23.63
2018-02-05T17:53:16.896Z,30.33
2018-02-05T17:55:44.614Z,25.10
2018-02-05T17:58:12.858Z,26.67
2018-02-05T18:00:40.319Z,25.53
2018-02-05T18:03:07.854Z,24.37
2018-02-05T18:05:35.725Z,23.60
2018-02-05T18:08:03.198Z,25.30
2018-02-05T18:10:30.747Z,32.10
2018-02-05T18:12:58.210Z,22.87
2018-02-05T18:15:25.666Z,24.37
2018-02-05T18:17:53.159Z,25.53
2018-02-05T18:20:21.403Z,26.23
2018-02-05T18:22:48.886Z,24.27
2018-02-05T18:25:17.163Z,29.80
2018-02-05T18:27:44.649Z,27.50
2018-02-05T18:30:12.894Z,26.97
2018-02-05T18:32:40.561Z,33.10
2018-02-05T18:35:08.031Z,28.33
2018-02-05T18:37:36.367Z,33.37
2018-02-05T18:40:03.827Z,30.90
2018-02-05T18:42:31.327Z,25.83
2018-02-05T18:44:59.587Z,21.47
2018-02-05T18:47:27.060Z,23.70
2018-02-05T18:49:55.403Z,25.53
2018-02-05T18:52:22.847Z,29.03
2018-02-05T18:54:50.340Z,25.03
2018-02-05T18:57:17.827Z,24.33
2018-02-05T18:59:46.496Z,28.30
2018-02-05T19:02:22.659Z,23.07
2018-02-05T19:04:50.316Z,27.83
2018-02-05T19:07:18.776Z,25.83
2018-02-05T19:09:46.696Z,25.77
2018-02-05T22:39:41.011Z,27.80
2018-02-05T22:42:08.485Z,23.07
2018-02-05T22:44:35.946Z,22.00
2018-02-05T22:47:03.442Z,20.07
2018-02-05T22:49:30.907Z,24.43
2018-02-05T22:51:58.409Z,26.17
2018-02-05T22:54:26.575Z,21.90
2018-02-05T22:56:54.030Z,20.70
2018-02-05T22:59:21.475Z,26.27
2018-02-05T23:01:49.894Z,24.60
2018-02-05T23:04:17.749Z,22.93
2018-02-05T23:06:45.219Z,23.40
2018-02-05T23:09:12.991Z,23.40
2018-02-05T23:11:40.456Z,31.03
2018-02-05T23:14:09.493Z,21.90
2018-02-05T23:16:37.010Z,22.03
2018-02-05T23:19:04.462Z,23.00
2018-02-05T23:21:31.940Z,21.20
2018-02-05T23:24:00.188Z,23.30
2018-02-05T23:26:27.659Z,23.77
2018-02-05T23:28:55.123Z,25.97
2018-02-05T23:31:22.611Z,23.30
2018-02-05T23:33:50.095Z,30.80
2018-02-05T23:36:17.595Z,29.77
2018-02-05T23:38:46.002Z,33.90
2018-02-05T23:41:13.563Z,30.57
2018-02-05T23:43:41.783Z,26.37
2018-02-05T23:46:09.293Z,22.30
2018-02-05T23:48:37.533Z,22.53
2018-02-05T23:51:05.021Z,26.33
2018-02-05T23:53:32.540Z,23.73
2018-02-05T23:56:00.045Z,23.70
2018-02-05T23:58:28.281Z,21.80
